createdAt,value
2018-07-31T00:02:03.792Z,6.03
2018-07-31T00:04:32.326Z,6.63
2018-07-31T00:07:00.857Z,6.37
2018-07-31T00:09:29.395Z,6.23
2018-07-31T00:11:57.945Z,6.33
2018-07-31T00:14:26.471Z,6.13
2018-07-31T00:16:55.004Z,5.80
2018-07-31T00:19:23.506Z,6.13
2018-07-31T00:21:51.710Z,5.60
2018-07-31T00:24:20.207Z,5.83
2018-07-31T00:26:48.759Z,6.47
2018-07-31T00:29:16.915Z,5.80
2018-07-31T00:31:45.421Z,5.90
2018-07-31T00:34:13.999Z,6.37
2018-07-31T00:36:42.617Z,6.43
2018-07-31T00:39:12.028Z,6.03
2018-07-31T00:41:41.244Z,5.90
2018-07-31T00:44:09.740Z,5.90
2018-07-31T00:46:38.513Z,5.70
2018-07-31T00:49:07.056Z,6.03
2018-07-31T00:51:35.640Z,5.67
2018-07-31T00:54:04.246Z,5.70
2018-07-31T00:56:32.736Z,5.87
2018-07-31T00:59:01.257Z,6.27
2018-07-31T01:01:29.764Z,5.67
2018-07-31T01:03:58.298Z,5.90
2018-07-31T01:06:26.840Z,5.60
2018-07-31T01:08:55.592Z,6.03
2018-07-31T01:11:24.213Z,6.30
2018-07-31T01:13:52.790Z,5.70
2018-07-31T01:16:21.316Z,6.00
2018-07-31T01:18:49.792Z,5.60
2018-07-31T01:21:18.310Z,5.67
2018-07-31T01:23:46.495Z,6.50
2018-07-31T01:26:15.039Z,5.67
2018-07-31T01:28:43.574Z,6.10
2018-07-31T01:31:12.122Z,6.23
2018-07-31T01:33:40.686Z,5.83
2018-07-31T01:36:09.189Z,6.00
2018-07-31T01:38:37.679Z,5.80
2018-07-31T01:41:06.197Z,6.47
2018-07-31T01:43:34.722Z,6.00
2018-07-31T01:46:03.359Z,5.80
2018-07-31T01:48:31.815Z,6.27
2018-07-31T01:51:00.335Z,6.00
2018-07-31T01:53:28.809Z,5.83
2018-07-31T01:55:57.299Z,6.00
2018-07-31T01:58:25.837Z,5.70
2018-07-31T02:00:54.373Z,5.97
2018-07-31T02:03:22.945Z,5.80
2018-07-31T02:05:51.480Z,5.30
2018-07-31T02:08:20.013Z,5.87
2018-07-31T02:10:49.875Z,5.90
2018-07-31T02:13:18.885Z,6.07
2018-07-31T02:15:47.541Z,5.77
2018-07-31T02:18:16.044Z,6.00
2018-07-31T02:20:44.201Z,5.67
2018-07-31T02:23:12.823Z,6.10
2018-07-31T02:25:41.926Z,5.70
2018-07-31T02:28:10.563Z,5.70
2018-07-31T02:30:38.960Z,5.77
2018-07-31T02:33:07.510Z,5.10
2018-07-31T02:35:36.036Z,5.50
2018-07-31T02:38:04.604Z,6.10
2018-07-31T02:40:33.108Z,5.33
2018-07-31T02:43:01.642Z,5.90
2018-07-31T02:45:30.153Z,5.70
2018-07-31T02:47:58.686Z,5.10
2018-07-31T02:50:27.188Z,6.03
2018-07-31T02:52:55.700Z,6.40
2018-07-31T02:55:24.204Z,7.13
2018-07-31T02:57:52.704Z,5.97
2018-07-31T03:00:21.200Z,5.90
2018-07-31T03:02:49.392Z,5.97
2018-07-31T03:05:17.924Z,6.23
2018-07-31T03:07:46.454Z,5.53
2018-07-31T03:10:14.984Z,5.80
2018-07-31T03:12:43.488Z,6.17
2018-07-31T03:15:12.358Z,5.70
2018-07-31T03:17:40.862Z,5.70
2018-07-31T03:20:09.627Z,5.90
2018-07-31T03:22:38.225Z,5.53
2018-07-31T03:25:06.776Z,6.10
2018-07-31T03:27:35.273Z,5.97
2018-07-31T03:30:03.884Z,6.50
2018-07-31T03:32:32.359Z,6.50
2018-07-31T03:35:00.861Z,6.23
2018-07-31T03:37:29.362Z,6.00
2018-07-31T03:39:57.857Z,6.37
2018-07-31T03:42:26.400Z,6.30
2018-07-31T03:44:54.923Z,5.83
2018-07-31T03:47:23.443Z,6.03
2018-07-31T03:49:51.978Z,6.17
2018-07-31T03:52:20.433Z,5.97
2018-07-31T03:54:48.579Z,6.10
2018-07-31T03:57:17.101Z,6.00
2018-07-31T03:59:45.285Z,5.70
2018-07-31T04:02:13.511Z,5.53
2018-07-31T04:04:42.061Z,5.83
2018-07-31T04:07:10.573Z,6.37
2018-07-31T04:09:39.071Z,6.20
2018-07-31T04:12:07.620Z,6.07
2018-07-31T04:14:36.160Z,6.57
2018-07-31T04:17:04.741Z,5.93
2018-07-31T04:19:33.249Z,6.27
2018-07-31T04:22:01.766Z,6.27
2018-07-31T04:24:30.247Z,6.50
2018-07-31T04:26:58.754Z,6.00
2018-07-31T04:29:27.274Z,6.37
2018-07-31T04:31:55.908Z,6.67
2018-07-31T04:34:24.445Z,7.23
2018-07-31T04:36:52.996Z,6.10
2018-07-31T04:39:21.528Z,6.83
2018-07-31T04:41:50.056Z,6.70
2018-07-31T04:44:18.578Z,6.50
2018-07-31T04:46:47.097Z,6.70
2018-07-31T04:49:15.645Z,6.13
2018-07-31T04:51:44.132Z,6.17
2018-07-31T04:54:12.643Z,6.23
2018-07-31T04:56:41.168Z,6.33
2018-07-31T04:59:09.322Z,6.93
2018-07-31T05:01:37.829Z,5.80
2018-07-31T05:04:05.994Z,6.07
2018-07-31T05:06:34.488Z,6.10
2018-07-31T05:09:03.381Z,6.60
2018-07-31T05:11:31.919Z,6.70
2018-07-31T05:14:00.436Z,5.67
2018-07-31T05:16:28.971Z,6.30
2018-07-31T05:18:57.450Z,5.83
2018-07-31T05:21:25.962Z,6.87
2018-07-31T05:23:54.493Z,6.53
2018-07-31T05:26:23.019Z,6.70
2018-07-31T05:28:51.517Z,6.47
2018-07-31T05:31:20.038Z,6.50
2018-07-31T05:33:48.776Z,6.70
2018-07-31T05:36:17.281Z,6.63
2018-07-31T05:38:45.775Z,6.57
2018-07-31T05:41:14.255Z,6.80
2018-07-31T05:43:42.811Z,6.50
2018-07-31T05:46:11.391Z,7.47
2018-07-31T05:48:39.846Z,6.90
2018-07-31T05:51:08.386Z,6.60
2018-07-31T05:53:36.873Z,7.30
2018-07-31T05:56:05.504Z,6.60
2018-07-31T05:58:34.012Z,6.17
2018-07-31T06:01:02.551Z,6.37
2018-07-31T06:03:31.071Z,6.93
2018-07-31T06:05:59.585Z,6.33
2018-07-31T06:08:27.747Z,7.13
2018-07-31T06:10:56.297Z,6.90
2018-07-31T06:13:24.827Z,6.60
2018-07-31T06:15:53.002Z,5.67
2018-07-31T06:18:21.524Z,6.33
2018-07-31T06:20:50.021Z,6.33
2018-07-31T06:23:18.521Z,6.17
2018-07-31T06:25:47.046Z,6.47
2018-07-31T06:28:15.611Z,7.50
2018-07-31T06:30:44.102Z,7.20
2018-07-31T06:33:12.627Z,7.90
2018-07-31T06:35:41.173Z,6.23
2018-07-31T06:38:09.714Z,6.40
2018-07-31T06:40:38.271Z,6.30
2018-07-31T06:43:06.433Z,6.63
2018-07-31T06:45:34.948Z,6.40
2018-07-31T06:48:03.198Z,5.87
2018-07-31T06:50:31.757Z,7.17
2018-07-31T06:53:00.301Z,6.10
2018-07-31T06:55:28.490Z,5.90
2018-07-31T06:57:57.020Z,5.73
2018-07-31T07:00:25.584Z,5.83
2018-07-31T07:02:54.161Z,7.00
2018-07-31T07:05:22.711Z,6.10
2018-07-31T07:07:51.437Z,6.30
2018-07-31T07:10:19.935Z,5.73
2018-07-31T07:12:48.441Z,5.80
2018-07-31T07:15:16.962Z,5.97
2018-07-31T07:17:45.127Z,5.43
2018-07-31T07:20:13.670Z,5.90
2018-07-31T07:22:42.266Z,5.60
2018-07-31T07:25:10.781Z,5.43
2018-07-31T07:27:39.331Z,5.60
2018-07-31T07:30:07.938Z,5.70
2018-07-31T07:32:36.472Z,5.50
2018-07-31T07:35:05.009Z,5.50
2018-07-31T07:37:33.554Z,5.60
2018-07-31T07:40:01.722Z,6.33
2018-07-31T07:42:29.859Z,5.87
2018-07-31T07:44:58.403Z,5.93
2018-07-31T07:47:26.903Z,6.17
2018-07-31T07:49:56.340Z,6.30
2018-07-31T07:52:24.942Z,6.17
2018-07-31T07:54:53.500Z,6.17
2018-07-31T07:57:22.044Z,5.43
2018-07-31T07:59:50.254Z,6.00
2018-07-31T08:02:18.776Z,5.77
2018-07-31T08:04:47.276Z,5.63
2018-07-31T08:07:15.844Z,5.73
2018-07-31T08:09:44.387Z,5.90
2018-07-31T08:12:12.958Z,6.13
2018-07-31T08:14:41.543Z,5.67
2018-07-31T08:17:09.723Z,6.00
2018-07-31T08:19:37.932Z,5.60
2018-07-31T08:22:06.471Z,5.70
2018-07-31T08:24:35.015Z,5.50
2018-07-31T08:27:03.613Z,5.53
2018-07-31T08:29:32.175Z,6.20
2018-07-31T08:32:00.699Z,6.40
2018-07-31T08:34:29.312Z,5.63
2018-07-31T08:36:57.814Z,6.20
2018-07-31T08:39:25.981Z,5.73
2018-07-31T08:41:54.583Z,5.80
2018-07-31T08:44:22.756Z,5.77
2018-07-31T08:46:51.275Z,5.93
2018-07-31T08:49:19.864Z,6.03
2018-07-31T08:51:48.394Z,6.10
2018-07-31T08:54:16.964Z,5.87
2018-07-31T08:56:45.457Z,5.83
2018-07-31T08:59:14.022Z,5.60
2018-07-31T09:01:42.581Z,5.17
2018-07-31T09:04:11.140Z,6.07
2018-07-31T09:06:39.676Z,5.60
2018-07-31T09:09:09.634Z,5.57
2018-07-31T09:11:38.215Z,6.10
2018-07-31T09:14:07.663Z,5.90
2018-07-31T09:16:36.251Z,6.47
2018-07-31T09:19:04.780Z,6.00
2018-07-31T09:21:33.317Z,5.43
2018-07-31T09:24:01.482Z,5.77
2018-07-31T09:26:29.672Z,5.87
2018-07-31T09:28:57.858Z,5.73
2018-07-31T09:31:26.400Z,5.83
2018-07-31T09:33:54.910Z,5.40
2018-07-31T09:36:23.423Z,5.78
2018-07-31T09:38:51.604Z,5.47
2018-07-31T09:41:20.100Z,5.67
2018-07-31T09:43:48.664Z,6.17
2018-07-31T09:46:17.200Z,5.95
2018-07-31T09:48:45.714Z,5.75
2018-07-31T09:51:14.257Z,6.15
2018-07-31T09:53:42.770Z,5.75
2018-07-31T09:56:11.337Z,5.75
2018-07-31T09:58:39.898Z,6.30
2018-07-31T10:01:13.712Z,5.72
2018-07-31T10:03:42.234Z,5.72
2018-07-31T10:06:10.797Z,5.83
2018-07-31T10:08:39.392Z,5.62
2018-07-31T10:11:07.936Z,5.83
2018-07-31T10:13:36.127Z,5.87
2018-07-31T10:16:04.707Z,5.92
2018-07-31T10:18:32.868Z,6.20
2018-07-31T10:21:01.521Z,5.95
2018-07-31T10:23:30.066Z,5.97
2018-07-31T10:25:58.263Z,5.35
2018-07-31T10:28:26.831Z,4.97
2018-07-31T10:30:55.462Z,5.75
2018-07-31T10:33:23.956Z,5.20
2018-07-31T10:35:52.460Z,5.58
2018-07-31T10:38:21.023Z,4.92
2018-07-31T10:40:49.580Z,5.55
2018-07-31T10:43:18.127Z,5.33
2018-07-31T10:45:46.724Z,5.40
2018-07-31T10:48:15.651Z,5.45
2018-07-31T10:50:44.235Z,5.45
2018-07-31T10:53:12.770Z,5.53
2018-07-31T10:55:41.463Z,5.85
2018-07-31T10:58:10.239Z,5.47
2018-07-31T11:00:38.379Z,5.28
2018-07-31T11:03:06.935Z,4.87
2018-07-31T11:05:35.499Z,5.53
2018-07-31T11:08:04.082Z,5.15
2018-07-31T11:10:32.600Z,5.03
2018-07-31T11:13:00.801Z,5.10
2018-07-31T11:15:29.322Z,5.25
2018-07-31T11:17:57.906Z,5.70
2018-07-31T11:20:26.468Z,4.72
2018-07-31T11:22:55.076Z,4.80
2018-07-31T11:25:23.581Z,4.47
2018-07-31T11:27:52.161Z,4.90
2018-07-31T11:30:20.667Z,4.70
2018-07-31T11:32:49.239Z,4.53
2018-07-31T11:35:17.813Z,4.90
2018-07-31T11:37:46.387Z,4.72
2018-07-31T11:40:14.919Z,5.20
2018-07-31T11:42:43.512Z,4.58
2018-07-31T11:45:12.065Z,5.03
2018-07-31T11:47:40.571Z,5.10
2018-07-31T11:50:09.298Z,4.87
2018-07-31T11:52:37.781Z,5.22
2018-07-31T11:55:06.367Z,4.92
2018-07-31T11:57:34.907Z,5.45
2018-07-31T12:00:03.619Z,5.50
2018-07-31T12:02:32.183Z,4.90
2018-07-31T12:05:00.737Z,4.78
2018-07-31T12:07:29.351Z,4.90
2018-07-31T12:09:57.934Z,5.47
2018-07-31T12:12:26.403Z,5.22
2018-07-31T12:14:54.969Z,4.67
2018-07-31T12:17:23.519Z,4.92
2018-07-31T12:19:52.098Z,4.53
2018-07-31T12:22:20.631Z,4.65
2018-07-31T12:24:49.149Z,4.90
2018-07-31T12:27:17.658Z,4.70
2018-07-31T12:29:46.198Z,4.70
2018-07-31T12:32:14.401Z,4.97
2018-07-31T12:34:43.032Z,4.60
2018-07-31T12:37:11.532Z,4.83
2018-07-31T12:39:40.037Z,4.50
2018-07-31T12:42:08.592Z,4.47
2018-07-31T12:44:37.184Z,4.42
2018-07-31T12:47:05.762Z,4.80
2018-07-31T12:49:34.293Z,5.03
2018-07-31T12:52:02.842Z,4.90
2018-07-31T12:54:31.420Z,4.65
2018-07-31T12:56:59.960Z,5.35
2018-07-31T12:59:28.508Z,5.17
2018-07-31T13:01:57.084Z,4.90
2018-07-31T13:04:25.615Z,5.20
2018-07-31T13:06:54.136Z,5.15
2018-07-31T13:09:22.693Z,5.47
2018-07-31T13:11:51.213Z,5.12
2018-07-31T13:14:19.738Z,5.55
2018-07-31T13:16:48.271Z,5.67
2018-07-31T13:19:16.788Z,5.33
2018-07-31T13:21:45.279Z,5.00
2018-07-31T13:24:13.800Z,4.87
2018-07-31T13:26:41.958Z,5.00
2018-07-31T13:29:10.514Z,5.25
2018-07-31T13:31:39.073Z,5.00
2018-07-31T13:34:07.637Z,5.10
2018-07-31T13:36:35.838Z,5.37
2018-07-31T13:39:06.769Z,5.17
2018-07-31T13:41:35.299Z,5.22
2018-07-31T13:44:04.479Z,5.42
2018-07-31T13:46:32.989Z,5.08
2018-07-31T13:49:01.567Z,5.47
2018-07-31T13:51:30.125Z,5.05
2018-07-31T13:53:58.685Z,5.20
2018-07-31T13:56:27.405Z,5.37
2018-07-31T13:58:56.056Z,5.37
2018-07-31T14:01:24.617Z,4.87
2018-07-31T14:03:53.138Z,5.30
2018-07-31T14:06:21.679Z,5.03
2018-07-31T14:08:50.215Z,4.90
2018-07-31T14:11:18.402Z,5.60
2018-07-31T14:13:46.601Z,5.00
2018-07-31T14:16:15.141Z,5.10
2018-07-31T14:18:43.684Z,5.35
2018-07-31T14:21:12.222Z,5.15
2018-07-31T14:23:40.779Z,5.15
2018-07-31T14:26:09.348Z,4.90
2018-07-31T14:28:37.954Z,5.40
2018-07-31T14:31:06.495Z,5.05
2018-07-31T14:33:35.020Z,5.00
2018-07-31T14:36:03.632Z,5.20
2018-07-31T14:38:32.201Z,5.00
2018-07-31T14:41:00.798Z,4.72
2018-07-31T14:43:29.327Z,5.30
2018-07-31T14:45:57.523Z,5.20
2018-07-31T14:48:26.075Z,5.10
2018-07-31T14:50:54.637Z,4.70
2018-07-31T14:53:23.235Z,4.72
2018-07-31T14:55:51.784Z,4.90
2018-07-31T14:58:20.314Z,5.00
2018-07-31T15:00:48.899Z,4.78
2018-07-31T15:03:17.443Z,4.70
2018-07-31T15:05:46.025Z,4.37
2018-07-31T15:08:14.575Z,4.40
2018-07-31T15:10:43.130Z,4.72
2018-07-31T15:13:11.725Z,4.80
2018-07-31T15:15:40.312Z,4.92
2018-07-31T15:18:08.888Z,4.70
2018-07-31T15:20:37.434Z,4.28
2018-07-31T15:23:06.150Z,4.75
2018-07-31T15:25:34.707Z,4.50
2018-07-31T15:28:02.940Z,4.33
2018-07-31T15:30:31.461Z,3.90
2018-07-31T15:33:00.096Z,3.90
2018-07-31T15:35:28.777Z,4.22
2018-07-31T15:37:57.412Z,4.70
2018-07-31T15:40:25.948Z,4.20
2018-07-31T15:42:54.511Z,4.72
2018-07-31T15:45:23.069Z,4.58
2018-07-31T15:47:51.647Z,4.83
2018-07-31T15:50:20.227Z,4.53
2018-07-31T15:52:48.751Z,5.08
2018-07-31T15:55:17.296Z,4.85
2018-07-31T15:57:45.806Z,4.83
2018-07-31T16:00:14.409Z,4.97
2018-07-31T16:02:42.971Z,4.80
2018-07-31T16:05:11.482Z,4.87
2018-07-31T16:07:40.042Z,5.10
2018-07-31T16:10:08.619Z,5.25
2018-07-31T16:12:37.146Z,5.00
2018-07-31T16:15:05.778Z,5.10
2018-07-31T16:17:34.310Z,5.22
2018-07-31T16:20:02.876Z,4.83
2018-07-31T16:22:31.429Z,5.45
2018-07-31T16:24:59.960Z,5.08
2018-07-31T16:27:28.540Z,5.20
2018-07-31T16:29:57.135Z,5.58
2018-07-31T16:32:25.708Z,5.60
2018-07-31T16:34:54.262Z,5.30
2018-07-31T16:37:22.821Z,5.17
2018-07-31T16:39:51.502Z,5.00
2018-07-31T16:42:20.001Z,4.92
2018-07-31T16:44:48.542Z,4.95
2018-07-31T16:47:17.057Z,4.85
2018-07-31T16:49:45.603Z,5.25
2018-07-31T16:52:14.138Z,5.50
2018-07-31T16:54:42.667Z,5.08
2018-07-31T16:57:11.209Z,5.40
2018-07-31T16:59:39.760Z,5.45
2018-07-31T17:02:08.312Z,5.53
2018-07-31T17:04:36.880Z,4.83
2018-07-31T17:07:05.460Z,5.45
2018-07-31T17:09:33.979Z,4.75
2018-07-31T17:12:02.496Z,5.10
2018-07-31T17:14:31.040Z,4.92
2018-07-31T17:16:59.220Z,5.03
2018-07-31T17:19:27.744Z,5.70
2018-07-31T17:21:56.282Z,5.35
2018-07-31T17:24:24.849Z,5.53
2018-07-31T17:26:53.372Z,4.95
2018-07-31T17:29:21.580Z,5.58
2018-07-31T17:31:50.118Z,5.85
2018-07-31T17:34:18.652Z,5.70
2018-07-31T17:36:47.182Z,5.47
2018-07-31T17:39:15.748Z,5.45
2018-07-31T17:41:44.299Z,5.50
2018-07-31T17:44:12.867Z,5.28
2018-07-31T17:46:41.393Z,5.40
2018-07-31T17:49:09.960Z,5.60
2018-07-31T17:51:38.470Z,5.58
2018-07-31T17:54:07.281Z,5.17
2018-07-31T17:56:35.813Z,5.58
2018-07-31T17:59:04.001Z,5.78
2018-07-31T18:01:32.531Z,5.20
2018-07-31T18:04:01.052Z,5.75
2018-07-31T18:06:29.239Z,5.72
2018-07-31T18:08:57.468Z,5.97
2018-07-31T18:11:26.003Z,9.50
2018-07-31T18:13:54.509Z,7.10
2018-07-31T18:16:23.049Z,8.80
2018-07-31T18:18:51.676Z,7.60
2018-07-31T18:21:20.208Z,6.63
2018-07-31T18:23:48.874Z,8.30
2018-07-31T18:26:17.378Z,7.67
2018-07-31T18:28:45.907Z,7.50
2018-07-31T18:31:14.421Z,7.50
2018-07-31T18:33:42.968Z,7.23
2018-07-31T18:36:11.498Z,6.57
2018-07-31T18:38:40.045Z,6.30
2018-07-31T18:41:08.698Z,5.90
2018-07-31T18:43:37.111Z,6.43
2018-07-31T18:46:05.690Z,6.90
2018-07-31T18:48:34.208Z,6.63
2018-07-31T18:51:02.737Z,6.43
2018-07-31T18:53:31.336Z,6.83
2018-07-31T18:55:59.864Z,6.10
2018-07-31T18:58:28.379Z,6.03
2018-07-31T19:00:56.992Z,7.13
2018-07-31T19:03:25.435Z,6.13
2018-07-31T19:05:53.597Z,5.63
2018-07-31T19:08:22.103Z,5.57
2018-07-31T19:10:50.614Z,5.93
2018-07-31T19:13:19.153Z,5.53
2018-07-31T19:15:47.686Z,5.93
2018-07-31T19:18:16.216Z,5.43
2018-07-31T19:20:44.774Z,5.57
2018-07-31T19:23:13.320Z,5.33
2018-07-31T19:25:41.839Z,5.50
2018-07-31T19:28:10.477Z,6.00
2018-07-31T19:30:38.943Z,5.80
2018-07-31T19:33:07.437Z,6.10
2018-07-31T19:35:35.942Z,6.20
2018-07-31T19:38:04.514Z,5.87
2018-07-31T19:40:33.177Z,5.90
2018-07-31T19:43:01.611Z,6.43
2018-07-31T19:45:29.758Z,5.97
2018-07-31T19:47:58.248Z,5.77
2018-07-31T19:50:26.806Z,5.83
2018-07-31T19:52:55.340Z,6.00
2018-07-31T19:55:23.522Z,6.10
2018-07-31T19:57:52.050Z,5.53
2018-07-31T20:00:20.564Z,6.23
2018-07-31T20:02:49.095Z,5.80
2018-07-31T20:05:17.596Z,6.20
2018-07-31T20:07:46.097Z,5.27
2018-07-31T20:10:14.673Z,6.30
2018-07-31T20:12:43.188Z,6.10
2018-07-31T20:15:11.754Z,6.70
2018-07-31T20:17:39.925Z,5.90
2018-07-31T20:20:08.487Z,5.93
2018-07-31T20:22:36.662Z,5.77
2018-07-31T20:25:04.858Z,5.70
2018-07-31T20:27:33.537Z,5.97
2018-07-31T20:30:01.696Z,6.30
2018-07-31T20:32:30.233Z,6.37
2018-07-31T20:34:58.730Z,5.47
2018-07-31T20:37:27.239Z,6.23
2018-07-31T20:39:55.778Z,6.67
2018-07-31T20:42:24.332Z,6.53
2018-07-31T20:44:52.814Z,6.00
2018-07-31T20:47:21.327Z,6.00
2018-07-31T20:49:49.804Z,6.33
2018-07-31T20:52:17.987Z,6.23
2018-07-31T20:54:46.506Z,6.83
2018-07-31T20:57:15.164Z,6.20
2018-07-31T20:59:43.716Z,5.80
2018-07-31T21:02:12.229Z,6.47
2018-07-31T21:04:40.758Z,6.57
2018-07-31T21:07:09.277Z,5.93
2018-07-31T21:09:37.771Z,6.40
2018-07-31T21:12:06.300Z,5.73
2018-07-31T21:14:34.846Z,6.40
2018-07-31T21:17:03.370Z,6.20
2018-07-31T21:19:31.922Z,6.10
2018-07-31T21:22:00.426Z,6.20
2018-07-31T21:24:28.932Z,5.80
2018-07-31T21:26:57.450Z,5.70
2018-07-31T21:29:26.039Z,6.40
2018-07-31T21:31:54.520Z,5.63
2018-07-31T21:34:23.073Z,6.10
2018-07-31T21:36:51.632Z,6.20
2018-07-31T21:39:20.165Z,6.00
2018-07-31T21:41:48.698Z,6.00
2018-07-31T21:44:16.899Z,6.23
2018-07-31T21:46:45.122Z,6.10
2018-07-31T21:49:13.617Z,5.97
2018-07-31T21:51:42.156Z,5.90
2018-07-31T21:54:10.664Z,6.00
2018-07-31T21:56:39.147Z,5.43
2018-07-31T21:59:07.767Z,6.20
2018-07-31T22:01:36.392Z,6.10
2018-07-31T22:04:04.980Z,6.20
2018-07-31T22:06:33.529Z,6.13
2018-07-31T22:09:02.064Z,6.20
2018-07-31T22:11:30.580Z,6.37
2018-07-31T22:13:59.187Z,6.70
2018-07-31T22:16:27.657Z,6.10
2018-07-31T22:18:56.185Z,6.20
2018-07-31T22:21:24.682Z,6.17
2018-07-31T22:23:52.854Z,5.90
2018-07-31T22:26:21.019Z,5.90
2018-07-31T22:28:49.588Z,6.10
2018-07-31T22:31:18.064Z,6.37
2018-07-31T22:33:46.555Z,6.60
2018-07-31T22:36:15.075Z,5.93
2018-07-31T22:38:43.591Z,5.90
2018-07-31T22:41:12.119Z,5.80
2018-07-31T22:43:40.661Z,5.93
2018-07-31T22:46:09.138Z,5.90
2018-07-31T22:48:37.622Z,6.40
2018-07-31T22:51:05.771Z,5.80
2018-07-31T22:53:34.276Z,6.07
2018-07-31T22:56:02.443Z,6.50
2018-07-31T22:58:30.999Z,6.37
2018-07-31T23:00:59.486Z,5.80
2018-07-31T23:03:28.012Z,6.20
2018-07-31T23:05:56.540Z,5.97
2018-07-31T23:08:25.066Z,6.03
2018-07-31T23:10:53.568Z,6.20
2018-07-31T23:13:21.738Z,5.80
2018-07-31T23:15:50.303Z,5.90
2018-07-31T23:18:18.823Z,6.30
2018-07-31T23:20:47.055Z,6.33
2018-07-31T23:23:15.517Z,6.07
2018-07-31T23:25:44.068Z,6.07
2018-07-31T23:28:12.546Z,5.90
2018-07-31T23:30:41.056Z,5.60
2018-07-31T23:33:09.575Z,6.73
2018-07-31T23:35:38.104Z,5.87
2018-07-31T23:38:06.667Z,6.00
2018-07-31T23:40:35.181Z,6.07
2018-07-31T23:43:03.692Z,6.20
2018-07-31T23:45:31.876Z,6.57
2018-07-31T23:48:00.373Z,6.27
2018-07-31T23:50:28.890Z,6.47
2018-07-31T23:52:57.421Z,6.13
2018-07-31T23:55:25.921Z,6.63
2018-07-31T23:57:54.469Z,6.10
